Time;durP1;ratioP1;P1;durP2;ratioP2;P2;SDS_P1;SDS_P2;PMS_P1;PMS_P2;Temp;Humidity;BMP_temperature;BMP_pressure;BME280_temperature;BME280_humidity;BME280_pressure;Samples;Min_cycle;Max_cycle;Signal;HPM_P1;HPM_P2
2022/01/13 00:01:15;;;;;;;;;;;;;;;-0.08;99.50;98596.69;5012424;28;19965;-71
2022/01/13 00:03:43;;;;;;;;;;;;;;;-0.12;99.50;98582.38;5013718;28;20012;-69
2022/01/13 00:06:11;;;;;;;;;;;;;;;-0.11;99.41;98568.69;5014030;28;19922;-71
2022/01/13 00:08:38;;;;;;;;;;;;;;;-0.09;100.00;98566.91;5013861;28;19917;-71
2022/01/13 00:11:05;;;;;;;;;;;;;;;-0.08;99.42;98562.59;5013504;28;19917;-71
2022/01/13 00:13:45;;;;;;;;;;;;;;;-0.11;99.48;98553.34;5013433;28;20279;-72
2022/01/13 00:16:38;;;;;;;;;;;;;;;-0.06;99.40;98551.41;5013982;28;19940;-72
2022/01/13 00:19:17;;;;;;;;;;;;;;;-0.02;99.22;98544.44;5013534;28;19929;-71
2022/01/13 00:21:52;;;;;;;;;;;;;;;-0.01;99.82;98541.78;5013261;28;19918;-71
2022/01/13 00:24:19;;;;;;;;;;;;;;;-0.03;99.17;98535.09;5045962;22;19916;-75
2022/01/13 00:26:47;;;;;;;;;;;;;;;-0.07;99.63;98526.75;5072967;28;19940;-73
2022/01/13 00:29:20;;;;;;;;;;;;;;;-0.09;99.37;98514.94;5072941;28;19917;-71
2022/01/13 00:31:47;;;;;;;;;;;;;;;-0.08;99.60;98502.09;5072970;28;19916;-76
2022/01/13 00:34:15;;;;;;;;;;;;;;;-0.11;99.95;98502.22;5065401;28;19917;-75
2022/01/13 00:36:42;;;;;;;;;;;;;;;-0.12;99.99;98500.59;5052840;28;19921;-73
2022/01/13 00:39:11;;;;;;;;;;;;;;;-0.09;99.34;98495.31;5052814;28;19939;-75
2022/01/13 00:41:38;;;;;;;;;;;;;;;-0.12;99.32;98500.59;5052770;28;19917;-70
2022/01/13 00:44:07;;;;;;;;;;;;;;;-0.12;99.18;98486.97;5052448;28;19974;-76
2022/01/13 00:46:42;;;;;;;;;;;;;;;-0.11;99.25;98486.06;5052503;28;19916;-75
2022/01/13 00:49:09;;;;;;;;;;;;;;;-0.11;99.10;98499.66;5052422;28;19952;-73
2022/01/13 00:51:36;;;;;;;;;;;;;;;-0.17;99.40;98483.81;5052690;28;19921;-73
2022/01/13 00:54:05;;;;;;;;;;;;;;;-0.18;99.31;98489.81;5052440;28;19916;-75
2022/01/13 00:56:34;;;;;;;;;;;;;;;-0.23;99.54;98488.31;5052579;28;20007;-70
2022/01/13 00:59:01;;;;;;;;;;;;;;;-0.28;100.00;98482.59;5052409;28;19917;-70
2022/01/13 01:01:28;;;;;;;;;;;;;;;-0.29;100.00;98463.03;5044400;28;19947;-73
2022/01/13 01:03:55;;;;;;;;;;;;;;;-0.29;100.00;98472.44;5052403;28;19940;-76
2022/01/13 01:06:23;;;;;;;;;;;;;;;-0.29;100.00;98465.59;5052491;28;19955;-76
2022/01/13 01:08:50;;;;;;;;;;;;;;;-0.29;100.00;98452.81;5052629;28;19939;-75
2022/01/13 01:11:17;;;;;;;;;;;;;;;-0.28;100.00;98451.09;5052434;28;19939;-69
2022/01/13 01:13:48;;;;;;;;;;;;;;;-0.26;100.00;98449.28;5052345;28;19916;-75
2022/01/13 01:16:17;;;;;;;;;;;;;;;-0.36;100.00;98442.94;5057238;28;20321;-72
2022/01/13 01:18:53;;;;;;;;;;;;;;;-0.37;100.00;98439.56;5059206;28;19991;-74
2022/01/13 01:21:52;;;;;;;;;;;;;;;-0.30;100.00;98424.78;5058979;28;19916;-70
2022/01/13 01:24:54;;;;;;;;;;;;;;;-0.43;100.00;98409.22;5063033;22;20320;-68
2022/01/13 01:27:20;;;;;;;;;;;;;;;-0.40;100.00;98405.69;5038730;28;19916;-65
2022/01/13 01:29:56;;;;;;;;;;;;;;;-0.39;100.00;98399.66;5039079;28;20026;-71
2022/01/13 01:32:24;;;;;;;;;;;;;;;-0.41;100.00;98393.78;5038894;28;19921;-71
2022/01/13 01:34:55;;;;;;;;;;;;;;;-0.40;100.00;98386.06;5038881;28;19939;-69
2022/01/13 01:37:24;;;;;;;;;;;;;;;-0.44;100.00;98389.66;5038954;28;19921;-70
2022/01/13 01:39:52;;;;;;;;;;;;;;;-0.46;100.00;98389.75;5039138;28;19917;-70
2022/01/13 01:42:19;;;;;;;;;;;;;;;-0.40;100.00;98375.84;5038874;28;19921;-71
2022/01/13 01:44:48;;;;;;;;;;;;;;;-0.40;100.00;98387.81;5038474;28;19921;-72
2022/01/13 01:47:18;;;;;;;;;;;;;;;-0.37;100.00;98377.44;5038621;28;19924;-70
2022/01/13 01:49:47;;;;;;;;;;;;;;;-0.34;100.00;98375.53;5038781;28;20027;-70
2022/01/13 01:52:16;;;;;;;;;;;;;;;-0.31;100.00;98359.22;5038711;28;19925;-72
2022/01/13 01:54:43;;;;;;;;;;;;;;;-0.33;100.00;98355.94;5038630;28;20039;-71
2022/01/13 01:57:10;;;;;;;;;;;;;;;-0.34;100.00;98367.88;5038573;28;19920;-69
2022/01/13 01:59:40;;;;;;;;;;;;;;;-0.29;100.00;98396.59;5038639;28;19917;-71
2022/01/13 02:02:08;;;;;;;;;;;;;;;-0.29;100.00;98395.78;5038346;28;19944;-71
2022/01/13 02:04:36;;;;;;;;;;;;;;;-0.38;100.00;98403.91;5038435;28;19921;-67
2022/01/13 02:07:04;;;;;;;;;;;;;;;-0.41;100.00;98394.66;5038667;28;19917;-70
2022/01/13 02:09:34;;;;;;;;;;;;;;;-0.37;100.00;98387.66;5038710;28;19917;-71
2022/01/13 02:12:06;;;;;;;;;;;;;;;-0.37;99.98;98391.03;5038490;28;19982;-71
2022/01/13 02:14:35;;;;;;;;;;;;;;;-0.40;100.00;98391.19;5038378;28;19920;-71
2022/01/13 02:17:06;;;;;;;;;;;;;;;-0.40;100.00;98386.06;5038543;28;20016;-70
2022/01/13 02:19:34;;;;;;;;;;;;;;;-0.40;99.89;98391.19;5038505;28;19945;-69
2022/01/13 02:22:02;;;;;;;;;;;;;;;-0.35;99.96;98378.19;5038333;28;19917;-70
2022/01/13 02:24:30;;;;;;;;;;;;;;;-0.35;99.24;98367.97;5038756;28;19917;-71
2022/01/13 02:26:57;;;;;;;;;;;;;;;-0.30;98.68;98363.47;5037300;28;19917;-72
2022/01/13 02:29:24;;;;;;;;;;;;;;;-0.37;99.23;98365.47;5035516;28;19921;-71
2022/01/13 02:31:51;;;;;;;;;;;;;;;-0.24;97.91;98347.81;5035423;28;19917;-70
2022/01/13 02:34:19;;;;;;;;;;;;;;;-0.01;95.58;98346.69;5035522;28;19943;-66
2022/01/13 02:36:46;;;;;;;;;;;;;;;-0.10;96.06;98340.31;5035284;28;19944;-70
2022/01/13 02:39:15;;;;;;;;;;;;;;;-0.02;95.62;98352.69;5035089;28;19943;-68
2022/01/13 02:41:42;;;;;;;;;;;;;;;-0.07;95.52;98342.69;5034790;28;19916;-66
2022/01/13 02:44:14;;;;;;;;;;;;;;;-0.08;96.12;98348.72;5034893;28;19917;-70
2022/01/13 02:47:07;;;;;;;;;;;;;;;-0.20;96.53;98331.44;5034870;28;19916;-70
2022/01/13 02:49:34;;;;;;;;;;;;;;;-0.24;96.41;98327.38;5035052;28;19916;-67
2022/01/13 02:52:02;;;;;;;;;;;;;;;-0.41;97.06;98332.47;5034649;28;19917;-69
2022/01/13 02:54:30;;;;;;;;;;;;;;;-0.43;96.33;98313.88;5035026;28;20004;-71
2022/01/13 02:56:57;;;;;;;;;;;;;;;-0.34;95.93;98319.31;5034989;28;19940;-68
2022/01/13 02:59:24;;;;;;;;;;;;;;;-0.30;94.99;98313.19;5034776;28;19940;-66
2022/01/13 03:01:52;;;;;;;;;;;;;;;-0.35;94.92;98309.19;5035043;28;19917;-70
2022/01/13 03:04:21;;;;;;;;;;;;;;;-0.36;94.67;98292.19;5034528;28;19920;-68
2022/01/13 03:06:48;;;;;;;;;;;;;;;-0.48;95.48;98296.22;5034721;28;20028;-66
2022/01/13 03:09:16;;;;;;;;;;;;;;;-0.47;95.03;98301.22;5034441;28;19944;-69
2022/01/13 03:11:46;;;;;;;;;;;;;;;-0.51;96.02;98281.03;5034494;28;19916;-71
2022/01/13 03:14:13;;;;;;;;;;;;;;;-0.50;95.27;98292.88;5034357;28;19917;-71
2022/01/13 03:16:42;;;;;;;;;;;;;;;-0.50;94.94;98287.78;5034746;28;19917;-71
2022/01/13 03:19:09;;;;;;;;;;;;;;;-0.58;95.49;98288.16;5034282;28;19943;-70
2022/01/13 03:21:36;;;;;;;;;;;;;;;-0.63;95.89;98290.09;5034355;28;19917;-71
2022/01/13 03:24:06;;;;;;;;;;;;;;;-0.61;95.05;98310.47;5048059;22;19925;-75
2022/01/13 03:26:33;;;;;;;;;;;;;;;-0.58;95.44;98295.81;5034611;28;19921;-75
2022/01/13 03:29:18;;;;;;;;;;;;;;;-0.71;95.72;98300.69;5034545;28;19917;-74
2022/01/13 03:31:45;;;;;;;;;;;;;;;-0.71;95.79;98326.22;5034113;28;20036;-74
2022/01/13 03:34:13;;;;;;;;;;;;;;;-0.75;95.41;98332.38;5034043;28;19917;-75
2022/01/13 03:36:40;;;;;;;;;;;;;;;-0.83;95.37;98338.75;5034668;28;19917;-74
2022/01/13 03:39:08;;;;;;;;;;;;;;;-0.86;96.54;98331.25;5033685;28;19917;-75
2022/01/13 03:41:35;;;;;;;;;;;;;;;-0.73;95.64;98343.34;5033884;28;19917;-72
2022/01/13 03:44:07;;;;;;;;;;;;;;;-0.81;95.16;98342.06;5034120;28;19940;-70
2022/01/13 03:46:35;;;;;;;;;;;;;;;-0.80;95.02;98347.09;5033798;28;19917;-73
2022/01/13 03:49:03;;;;;;;;;;;;;;;-0.74;95.60;98359.59;5033876;28;19960;-74
2022/01/13 03:51:46;;;;;;;;;;;;;;;-0.82;95.72;98355.72;5034063;28;19939;-74
2022/01/13 03:54:57;;;;;;;;;;;;;;;-0.86;96.16;98354.22;5033920;28;19940;-74
2022/01/13 03:57:42;;;;;;;;;;;;;;;-1.02;96.26;98357.47;5033849;28;19920;-73
2022/01/13 04:00:27;;;;;;;;;;;;;;;-0.96;95.49;98358.91;5033793;28;19917;-72
2022/01/13 04:02:55;;;;;;;;;;;;;;;-1.14;96.55;98363.97;5033853;28;19921;-74
2022/01/13 04:05:22;;;;;;;;;;;;;;;-0.97;95.96;98364.94;5033652;28;19926;-72
2022/01/13 04:07:49;;;;;;;;;;;;;;;-1.08;96.18;98367.13;5033668;28;19940;-75
2022/01/13 04:10:31;;;;;;;;;;;;;;;-0.99;95.71;98361.63;5033529;28;19917;-75
2022/01/13 04:12:58;;;;;;;;;;;;;;;-1.04;95.69;98377.13;5033639;28;19939;-75
2022/01/13 04:15:29;;;;;;;;;;;;;;;-0.93;95.31;98369.81;5033387;28;19960;-74
2022/01/13 04:17:58;;;;;;;;;;;;;;;-0.93;94.79;98387.69;5033585;28;19957;-76
2022/01/13 04:20:25;;;;;;;;;;;;;;;-0.94;95.19;98383.47;5033555;28;19921;-75
2022/01/13 04:22:52;;;;;;;;;;;;;;;-0.90;95.15;98386.72;5033274;28;19920;-73
2022/01/13 04:25:22;;;;;;;;;;;;;;;-0.96;95.61;98382.72;5047829;22;20358;-69
2022/01/13 04:27:50;;;;;;;;;;;;;;;-0.92;95.57;98373.22;5033048;28;19916;-72
2022/01/13 04:33:04;;;;;;;;;;;;;;;-0.96;94.93;98372.50;5033055;28;19924;-70
2022/01/13 04:35:31;;;;;;;;;;;;;;;-1.02;95.08;98360.03;5033448;28;19939;-71
2022/01/13 04:37:58;;;;;;;;;;;;;;;-0.90;94.97;98363.72;5032916;28;19924;-72
2022/01/13 04:40:26;;;;;;;;;;;;;;;-0.92;95.02;98370.66;5032957;28;19963;-68
2022/01/13 04:42:55;;;;;;;;;;;;;;;-0.90;94.30;98373.94;5033197;28;19917;-68
2022/01/13 04:45:23;;;;;;;;;;;;;;;-0.87;94.36;98358.50;5032637;28;20058;-69
2022/01/13 04:47:52;;;;;;;;;;;;;;;-0.91;94.83;98352.69;5032691;28;20358;-69
2022/01/13 04:50:21;;;;;;;;;;;;;;;-1.01;95.00;98363.41;5031864;28;19917;-70
2022/01/13 04:52:48;;;;;;;;;;;;;;;-0.97;94.07;98372.59;5032995;28;19917;-68
2022/01/13 04:55:21;;;;;;;;;;;;;;;-0.99;94.69;98387.16;5032890;28;19917;-69
2022/01/13 04:57:48;;;;;;;;;;;;;;;-1.00;94.92;98378.66;5032728;28;19960;-70
2022/01/13 05:00:16;;;;;;;;;;;;;;;-1.02;94.68;98377.06;5032631;28;19939;-69
2022/01/13 05:02:43;;;;;;;;;;;;;;;-1.02;94.36;98384.75;5032474;28;19917;-72
2022/01/13 05:05:10;;;;;;;;;;;;;;;-0.99;94.28;98379.47;5032411;28;19917;-71
2022/01/13 05:07:38;;;;;;;;;;;;;;;-1.02;93.81;98392.41;5032624;28;19917;-68
2022/01/13 05:10:06;;;;;;;;;;;;;;;-1.07;93.43;98394.31;5032703;28;19940;-69
2022/01/13 05:12:38;;;;;;;;;;;;;;;-1.05;93.91;98384.84;5032491;28;19916;-70
2022/01/13 05:15:07;;;;;;;;;;;;;;;-1.12;93.33;98382.59;5032550;28;19940;-68
2022/01/13 05:17:58;;;;;;;;;;;;;;;-1.12;93.49;98397.91;5032613;28;20000;-70
2022/01/13 05:20:28;;;;;;;;;;;;;;;-1.12;93.27;98382.59;5032275;28;19921;-68
2022/01/13 05:22:56;;;;;;;;;;;;;;;-1.16;93.38;98381.06;5032548;28;19917;-65
2022/01/13 05:25:23;;;;;;;;;;;;;;;-1.11;92.79;98396.16;5032679;28;20304;-72
2022/01/13 05:27:50;;;;;;;;;;;;;;;-1.01;92.29;98386.38;5032386;28;20270;-69
2022/01/13 05:30:18;;;;;;;;;;;;;;;-1.05;92.29;98395.06;5032116;28;19944;-72
2022/01/13 05:32:46;;;;;;;;;;;;;;;-1.08;92.41;98395.22;5032429;28;19939;-72
2022/01/13 05:35:13;;;;;;;;;;;;;;;-1.02;91.64;98398.31;5032219;28;19917;-67
2022/01/13 05:37:40;;;;;;;;;;;;;;;-0.96;91.44;98410.78;5032264;28;19917;-66
2022/01/13 05:40:09;;;;;;;;;;;;;;;-0.96;90.79;98415.06;5032343;28;19917;-72
2022/01/13 05:42:36;;;;;;;;;;;;;;;-0.99;90.66;98405.84;5032323;28;19940;-69
2022/01/13 05:45:05;;;;;;;;;;;;;;;-1.06;91.20;98424.03;5032795;28;19944;-71
2022/01/13 05:47:32;;;;;;;;;;;;;;;-1.05;90.36;98416.34;5032218;28;19982;-72
2022/01/13 05:50:00;;;;;;;;;;;;;;;-1.03;90.32;98406.03;5032579;28;20342;-71
2022/01/13 05:52:27;;;;;;;;;;;;;;;-1.12;90.65;98408.09;5031801;28;20383;-72
2022/01/13 05:54:54;;;;;;;;;;;;;;;-1.13;90.00;98403.06;5031691;28;19917;-65
2022/01/13 05:57:23;;;;;;;;;;;;;;;-0.96;87.92;98405.69;5031817;28;19917;-73
2022/01/13 05:59:50;;;;;;;;;;;;;;;-0.94;88.38;98403.06;5032240;28;19917;-72
2022/01/13 06:02:17;;;;;;;;;;;;;;;-1.04;88.60;98400.09;5034055;28;19917;-70
2022/01/13 06:04:44;;;;;;;;;;;;;;;-1.03;88.86;98417.06;5035566;28;19921;-65
2022/01/13 06:07:11;;;;;;;;;;;;;;;-1.05;89.12;98421.44;5035813;28;19917;-72
2022/01/13 06:09:38;;;;;;;;;;;;;;;-1.06;89.49;98434.25;5035678;28;19999;-69
2022/01/13 06:12:05;;;;;;;;;;;;;;;-1.17;89.38;98434.72;5036053;28;20012;-65
2022/01/13 06:14:34;;;;;;;;;;;;;;;-1.20;89.00;98439.97;5035559;28;20367;-69
2022/01/13 06:17:01;;;;;;;;;;;;;;;-1.25;89.61;98424.88;5035612;28;19917;-68
2022/01/13 06:19:28;;;;;;;;;;;;;;;-1.18;88.66;98435.63;5028139;28;19921;-68
2022/01/13 06:21:55;;;;;;;;;;;;;;;-1.25;88.00;98439.34;5039148;28;19917;-72
2022/01/13 06:24:22;;;;;;;;;;;;;;;-1.29;88.98;98437.81;5042605;22;19929;-77
2022/01/13 06:26:49;;;;;;;;;;;;;;;-1.24;88.62;98452.03;5015340;28;19972;-76
2022/01/13 06:29:16;;;;;;;;;;;;;;;-1.25;88.63;98439.34;5013200;28;19940;-76
2022/01/13 06:31:45;;;;;;;;;;;;;;;-1.28;89.61;98442.88;5014245;28;20283;-72
2022/01/13 06:34:12;;;;;;;;;;;;;;;-1.30;88.35;98439.53;5014929;28;19921;-75
2022/01/13 06:36:39;;;;;;;;;;;;;;;-1.36;88.98;98437.28;5015106;28;19917;-76
2022/01/13 06:39:06;;;;;;;;;;;;;;;-1.48;89.80;98443.72;5009324;28;19940;-76
2022/01/13 06:41:38;;;;;;;;;;;;;;;-1.49;90.01;98439.53;5014730;28;19960;-78
2022/01/13 06:44:06;;;;;;;;;;;;;;;-1.47;90.11;98444.53;5014329;28;19917;-78
2022/01/13 06:46:33;;;;;;;;;;;;;;;-1.47;90.24;98447.09;5013529;28;20351;-79
2022/01/13 06:49:01;;;;;;;;;;;;;;;-1.51;89.62;98445.59;5025860;28;19971;-79
2022/01/13 06:51:29;;;;;;;;;;;;;;;-1.46;90.17;98443.66;5033170;28;19943;-75
2022/01/13 06:53:56;;;;;;;;;;;;;;;-1.37;89.39;98438.16;5034730;28;19917;-76
2022/01/13 06:56:24;;;;;;;;;;;;;;;-1.27;88.98;98441.13;5033128;28;19920;-71
2022/01/13 06:58:52;;;;;;;;;;;;;;;-1.40;88.96;98451.88;5033080;28;19939;-69
2022/01/13 07:01:21;;;;;;;;;;;;;;;-1.34;88.57;98449.06;5033895;28;19923;-71
2022/01/13 07:03:48;;;;;;;;;;;;;;;-1.34;89.57;98461.81;5034268;28;19921;-72
2022/01/13 07:06:16;;;;;;;;;;;;;;;-1.28;88.78;98445.41;5032394;28;19917;-71
2022/01/13 07:08:43;;;;;;;;;;;;;;;-1.26;87.87;98458.09;5033710;28;20413;-77
2022/01/13 07:11:10;;;;;;;;;;;;;;;-1.31;88.47;98448.09;5033887;28;20003;-75
2022/01/13 07:13:37;;;;;;;;;;;;;;;-1.34;88.17;98448.22;5032419;28;19917;-76
2022/01/13 07:16:04;;;;;;;;;;;;;;;-1.28;87.45;98450.53;5032707;28;19917;-76
2022/01/13 07:18:38;;;;;;;;;;;;;;;-1.23;87.13;98456.25;5013660;28;19918;-78
2022/01/13 07:21:05;;;;;;;;;;;;;;;-1.31;87.23;98473.63;4995175;28;19918;-77
2022/01/13 07:23:34;;;;;;;;;;;;;;;-1.28;87.28;98476.03;5013226;28;19921;-77
2022/01/13 07:26:02;;;;;;;;;;;;;;;-1.19;86.50;98467.13;5027561;22;19966;-74
2022/01/13 07:28:29;;;;;;;;;;;;;;;-1.30;87.33;98461.69;5013131;28;19939;-69
2022/01/13 07:30:56;;;;;;;;;;;;;;;-1.30;86.42;98470.16;5013380;28;19917;-70
2022/01/13 07:33:23;;;;;;;;;;;;;;;-1.30;86.73;98477.81;5011631;28;19917;-72
2022/01/13 07:35:50;;;;;;;;;;;;;;;-1.38;86.35;98482.44;5013004;28;19917;-71
2022/01/13 07:38:18;;;;;;;;;;;;;;;-1.30;86.22;98482.09;5013196;28;19940;-71
2022/01/13 07:40:46;;;;;;;;;;;;;;;-1.32;86.13;98482.16;5013114;28;19917;-66
2022/01/13 07:43:16;;;;;;;;;;;;;;;-1.28;85.33;98470.94;5012527;28;20268;-74
2022/01/13 07:45:43;;;;;;;;;;;;;;;-1.20;85.11;98468.03;5012442;28;19979;-73
2022/01/13 07:48:10;;;;;;;;;;;;;;;-1.13;83.60;98471.97;5013382;28;19956;-73
2022/01/13 07:50:37;;;;;;;;;;;;;;;-1.16;83.94;98472.94;5012346;28;20343;-73
2022/01/13 07:53:04;;;;;;;;;;;;;;;-1.21;85.12;98481.69;5012191;28;19917;-73
2022/01/13 07:55:31;;;;;;;;;;;;;;;-1.25;85.80;98470.78;5013003;28;19918;-74
2022/01/13 07:58:00;;;;;;;;;;;;;;;-1.23;85.09;98478.34;5013302;28;19917;-69
2022/01/13 08:00:27;;;;;;;;;;;;;;;-1.23;85.54;98478.34;5011371;28;19943;-73
2022/01/13 08:02:54;;;;;;;;;;;;;;;-1.20;85.73;98473.97;5012775;28;19943;-71
2022/01/13 08:05:23;;;;;;;;;;;;;;;-1.28;85.84;98486.25;5012810;28;20024;-73
2022/01/13 08:07:50;;;;;;;;;;;;;;;-1.27;85.60;98490.44;5012467;28;19940;-72
2022/01/13 08:10:17;;;;;;;;;;;;;;;-1.34;85.21;98483.94;5011459;28;19944;-73
2022/01/13 08:12:44;;;;;;;;;;;;;;;-1.41;85.17;98487.66;5011724;28;19917;-68
2022/01/13 08:15:14;;;;;;;;;;;;;;;-1.46;85.87;98484.47;5013152;28;19918;-74
2022/01/13 08:20:25;;;;;;;;;;;;;;;-1.44;86.05;98495.41;5011560;28;19924;-73
2022/01/13 08:22:52;;;;;;;;;;;;;;;-1.47;86.66;98501.47;5012441;28;19917;-69
2022/01/13 08:25:20;;;;;;;;;;;;;;;-1.60;86.87;98488.41;5012876;28;19940;-69
2022/01/13 08:27:47;;;;;;;;;;;;;;;-1.65;87.12;98495.41;5011351;28;19987;-72
2022/01/13 08:30:16;;;;;;;;;;;;;;;-1.70;87.44;98501.59;5012659;28;19917;-66
2022/01/13 08:32:43;;;;;;;;;;;;;;;-1.66;86.51;98495.50;5012382;28;19917;-73
2022/01/13 08:35:11;;;;;;;;;;;;;;;-1.62;86.11;98497.00;5012011;28;19921;-68
2022/01/13 08:37:38;;;;;;;;;;;;;;;-1.55;86.02;98488.22;5011658;28;19965;-73
2022/01/13 08:40:06;;;;;;;;;;;;;;;-1.67;85.72;98492.13;5011728;28;19936;-72
2022/01/13 08:42:34;;;;;;;;;;;;;;;-1.64;86.68;98496.28;5012728;28;19917;-72
2022/01/13 08:45:01;;;;;;;;;;;;;;;-1.78;86.36;98507.00;5011272;28;19959;-72
2022/01/13 08:47:29;;;;;;;;;;;;;;;-1.73;87.41;98494.91;5011132;28;19940;-73
2022/01/13 08:49:57;;;;;;;;;;;;;;;-1.73;86.68;98499.19;5011943;28;19917;-69
2022/01/13 08:52:24;;;;;;;;;;;;;;;-1.67;86.79;98494.69;5011864;28;19917;-73
2022/01/13 08:54:52;;;;;;;;;;;;;;;-1.76;86.68;98493.31;5010386;28;19917;-70
2022/01/13 08:57:19;;;;;;;;;;;;;;;-1.72;87.73;98499.13;5012202;28;20031;-67
2022/01/13 08:59:46;;;;;;;;;;;;;;;-1.70;87.02;98494.78;5012044;28;19917;-68
2022/01/13 09:02:13;;;;;;;;;;;;;;;-1.57;86.52;98495.09;5011976;28;19940;-73
2022/01/13 09:04:42;;;;;;;;;;;;;;;-1.60;87.13;98496.06;5010753;28;19963;-70
2022/01/13 09:07:09;;;;;;;;;;;;;;;-1.67;86.85;98499.78;5011370;28;19940;-72
2022/01/13 09:09:36;;;;;;;;;;;;;;;-1.71;87.18;98500.78;5012418;28;19941;-71
2022/01/13 09:12:03;;;;;;;;;;;;;;;-1.69;87.03;98490.53;5010942;28;19918;-72
2022/01/13 09:14:32;;;;;;;;;;;;;;;-1.77;87.08;98496.78;5010455;28;19940;-73
2022/01/13 09:17:00;;;;;;;;;;;;;;;-1.74;87.71;98497.53;5011605;28;20003;-72
2022/01/13 09:19:27;;;;;;;;;;;;;;;-1.67;87.36;98497.22;5012588;28;19918;-73
2022/01/13 09:21:57;;;;;;;;;;;;;;;-1.67;86.67;98504.03;5010187;28;19963;-72
2022/01/13 09:24:24;;;;;;;;;;;;;;;-1.62;87.38;98500.41;5025282;22;19949;-73
2022/01/13 09:26:51;;;;;;;;;;;;;;;-1.67;86.69;98514.22;5012151;28;20023;-71
2022/01/13 09:29:19;;;;;;;;;;;;;;;-1.68;86.61;98493.00;5011369;28;20015;-74
2022/01/13 09:31:46;;;;;;;;;;;;;;;-1.61;86.06;98491.03;5025211;28;19939;-75
2022/01/13 09:34:13;;;;;;;;;;;;;;;-1.67;86.35;98492.13;5032296;28;19924;-75
2022/01/13 09:36:40;;;;;;;;;;;;;;;-1.57;86.52;98485.75;5051576;28;19939;-74
2022/01/13 09:39:09;;;;;;;;;;;;;;;-1.62;86.13;98485.13;5055527;28;19920;-73
2022/01/13 09:41:37;;;;;;;;;;;;;;;-1.48;85.68;98479.44;5047125;28;19917;-76
2022/01/13 09:44:05;;;;;;;;;;;;;;;-1.51;85.33;98484.66;5046957;28;19917;-72
2022/01/13 09:46:32;;;;;;;;;;;;;;;-1.40;84.90;98479.94;5034154;28;19921;-72
2022/01/13 09:49:02;;;;;;;;;;;;;;;-1.50;84.67;98481.22;5034844;28;19917;-75
2022/01/13 09:51:30;;;;;;;;;;;;;;;-1.42;85.79;98488.53;5035808;28;20011;-73
2022/01/13 09:53:57;;;;;;;;;;;;;;;-1.38;85.48;98485.78;5034375;28;19952;-76
2022/01/13 09:56:25;;;;;;;;;;;;;;;-1.35;85.17;98498.41;5034453;28;19940;-75
2022/01/13 09:58:52;;;;;;;;;;;;;;;-1.37;84.91;98501.94;5035387;28;19917;-77
2022/01/13 10:01:20;;;;;;;;;;;;;;;-1.35;84.87;98516.28;5034776;28;19916;-76
2022/01/13 10:03:47;;;;;;;;;;;;;;;-1.40;84.24;98510.53;5031180;28;19917;-73
2022/01/13 10:06:16;;;;;;;;;;;;;;;-1.46;84.98;98509.97;5034998;28;20599;-76
2022/01/13 10:08:44;;;;;;;;;;;;;;;-1.54;85.06;98520.50;5034980;28;19943;-76
2022/01/13 10:11:36;;;;;;;;;;;;;;;-1.44;85.49;98518.38;5033978;28;19920;-76
2022/01/13 10:14:04;;;;;;;;;;;;;;;-1.50;85.41;98506.72;5050347;28;19939;-76
2022/01/13 10:16:30;;;;;;;;;;;;;;;-1.49;85.50;98508.38;5054608;28;19917;-76
2022/01/13 10:18:57;;;;;;;;;;;;;;;-1.59;86.04;98496.91;5055440;28;20359;-77
2022/01/13 10:21:24;;;;;;;;;;;;;;;-1.69;84.80;98505.84;5050866;28;19940;-77
2022/01/13 10:26:34;;;;;;;;;;;;;;;-1.79;86.49;98505.38;5024625;28;19916;-74
2022/01/13 10:29:01;;;;;;;;;;;;;;;-1.75;85.70;98506.88;5034313;28;19939;-65
2022/01/13 10:31:44;;;;;;;;;;;;;;;-1.81;86.30;98512.25;5033189;28;19939;-73
2022/01/13 10:34:22;;;;;;;;;;;;;;;-1.97;86.88;98499.28;5033503;28;20019;-68
2022/01/13 10:37:02;;;;;;;;;;;;;;;-1.87;86.22;98495.47;5035487;28;19921;-72
2022/01/13 10:39:48;;;;;;;;;;;;;;;-1.87;86.57;98497.22;5031484;28;19971;-72
2022/01/13 10:42:44;;;;;;;;;;;;;;;-1.81;86.38;98512.25;5021578;28;19917;-73
2022/01/13 10:45:12;;;;;;;;;;;;;;;-1.99;85.79;98509.53;5033450;28;19924;-72
2022/01/13 10:47:39;;;;;;;;;;;;;;;-1.87;86.53;98512.50;5031927;28;19917;-69
2022/01/13 10:50:08;;;;;;;;;;;;;;;-1.91;86.84;98505.84;5032808;28;19929;-72
2022/01/13 10:52:35;;;;;;;;;;;;;;;-1.91;87.03;98505.84;5033536;28;19916;-73
2022/01/13 10:55:03;;;;;;;;;;;;;;;-1.88;86.65;98500.63;5034500;28;19916;-72
2022/01/13 10:57:31;;;;;;;;;;;;;;;-1.92;86.22;98494.84;5032157;28;19917;-72
2022/01/13 10:59:59;;;;;;;;;;;;;;;-1.80;85.63;98483.31;5033222;28;19939;-64
2022/01/13 11:02:26;;;;;;;;;;;;;;;-1.80;85.87;98480.75;5033765;28;19917;-72
2022/01/13 11:04:54;;;;;;;;;;;;;;;-1.98;86.14;98477.22;5033699;28;19917;-72
2022/01/13 11:07:23;;;;;;;;;;;;;;;-1.79;86.16;98469.69;5032045;28;20248;-69
2022/01/13 11:09:53;;;;;;;;;;;;;;;-1.65;85.47;98464.81;5032904;28;19921;-67
2022/01/13 11:12:28;;;;;;;;;;;;;;;-1.60;84.78;98457.81;5033373;28;19944;-64
2022/01/13 11:15:00;;;;;;;;;;;;;;;-1.42;83.02;98468.13;5032486;28;19917;-70
2022/01/13 11:17:28;;;;;;;;;;;;;;;-1.46;84.48;98479.38;5032641;28;19920;-73
2022/01/13 11:19:57;;;;;;;;;;;;;;;-1.43;84.21;98481.78;5033560;28;19917;-72
2022/01/13 11:22:25;;;;;;;;;;;;;;;-1.44;83.99;98485.22;5034334;28;19970;-72
2022/01/13 11:24:52;;;;;;;;;;;;;;;-1.46;84.80;98472.53;5032233;28;19916;-65
2022/01/13 11:27:21;;;;;;;;;;;;;;;-1.43;84.23;98474.13;5032681;28;19917;-71
2022/01/13 11:29:49;;;;;;;;;;;;;;;-1.52;84.44;98464.31;5033117;28;19939;-73
2022/01/13 11:32:18;;;;;;;;;;;;;;;-1.67;85.15;98473.44;5033021;28;19921;-72
2022/01/13 11:34:47;;;;;;;;;;;;;;;-1.60;84.03;98475.66;5031337;28;19917;-70
2022/01/13 11:37:14;;;;;;;;;;;;;;;-1.50;85.18;98470.19;5032983;28;19917;-72
2022/01/13 11:39:43;;;;;;;;;;;;;;;-1.52;84.57;98475.34;5033189;28;20335;-69
2022/01/13 11:42:11;;;;;;;;;;;;;;;-1.55;85.03;98478.84;5031947;28;19979;-73
2022/01/13 11:44:39;;;;;;;;;;;;;;;-1.57;84.11;98475.56;5031667;28;19916;-72
2022/01/13 11:47:18;;;;;;;;;;;;;;;-1.74;84.41;98479.69;5032328;28;19929;-66
2022/01/13 11:49:57;;;;;;;;;;;;;;;-1.63;85.08;98478.34;5033234;28;19917;-66
2022/01/13 11:52:40;;;;;;;;;;;;;;;-1.65;84.09;98485.22;5027909;28;19917;-67
2022/01/13 11:55:21;;;;;;;;;;;;;;;-1.64;84.36;98497.09;5032282;28;20015;-70
2022/01/13 11:57:48;;;;;;;;;;;;;;;-1.54;84.17;98492.44;5032463;28;19921;-71
2022/01/13 12:00:26;;;;;;;;;;;;;;;-1.67;83.53;98497.22;5031261;28;19917;-73
2022/01/13 12:02:56;;;;;;;;;;;;;;;-1.69;83.42;98498.19;5031035;28;19921;-69
2022/01/13 12:05:24;;;;;;;;;;;;;;;-1.72;84.02;98501.69;5032458;28;19937;-69
2022/01/13 12:07:53;;;;;;;;;;;;;;;-1.68;84.69;98512.56;5033317;28;19917;-69
2022/01/13 12:10:41;;;;;;;;;;;;;;;-1.66;83.71;98526.09;5030950;28;19929;-72
2022/01/13 12:13:23;;;;;;;;;;;;;;;-1.87;85.21;98520.16;5026202;28;19917;-72
2022/01/13 12:15:50;;;;;;;;;;;;;;;-1.81;85.26;98517.34;5031409;28;20024;-70
2022/01/13 12:18:39;;;;;;;;;;;;;;;-1.73;84.73;98522.94;5031823;28;19929;-74
2022/01/13 12:21:24;;;;;;;;;;;;;;;-1.77;84.76;98522.25;5031044;28;19917;-70
2022/01/13 12:23:51;;;;;;;;;;;;;;;-1.77;84.72;98521.44;5032147;28;20059;-70
2022/01/13 12:26:37;;;;;;;;;;;;;;;-1.80;84.15;98519.00;5032762;28;19916;-71
2022/01/13 12:29:10;;;;;;;;;;;;;;;-1.85;84.60;98524.28;5024236;28;19917;-67
2022/01/13 12:31:48;;;;;;;;;;;;;;;-1.74;83.77;98513.66;5031709;28;19964;-72
2022/01/13 12:34:22;;;;;;;;;;;;;;;-1.89;85.15;98532.13;5031845;28;19917;-72
2022/01/13 12:36:49;;;;;;;;;;;;;;;-1.86;85.43;98520.06;5030811;28;19972;-68
2022/01/13 12:39:16;;;;;;;;;;;;;;;-1.80;85.01;98519.00;5030661;28;19940;-71
2022/01/13 12:41:56;;;;;;;;;;;;;;;-1.86;84.83;98524.34;5031752;28;19962;-71
2022/01/13 12:45:27;;;;;;;;;;;;;;;-1.84;84.99;98525.13;5032216;28;19964;-68
2022/01/13 12:47:10;;;;;;;;;;;;;;;-1.94;84.75;98526.38;5030464;28;19917;-72
2022/01/13 12:49:38;;;;;;;;;;;;;;;-1.91;85.14;98523.69;5031595;28;19916;-66
2022/01/13 12:52:06;;;;;;;;;;;;;;;-2.08;85.46;98532.84;5031555;28;19940;-66
2022/01/13 12:54:33;;;;;;;;;;;;;;;-2.04;85.22;98520.81;5030751;28;19944;-72
2022/01/13 12:57:02;;;;;;;;;;;;;;;-1.99;85.90;98534.19;5030506;28;19916;-73
2022/01/13 12:59:30;;;;;;;;;;;;;;;-2.11;85.24;98529.56;5023356;28;19966;-72
2022/01/13 13:01:58;;;;;;;;;;;;;;;-2.06;84.95;98540.41;5032521;28;19917;-74
2022/01/13 13:04:25;;;;;;;;;;;;;;;-2.04;84.87;98531.81;5029988;28;19917;-65
2022/01/13 13:06:53;;;;;;;;;;;;;;;-2.12;85.32;98535.56;5030400;28;19921;-73